createdAt,value
2023-01-03T00:00:28.700Z,1009.04
2023-01-03T00:01:00.270Z,1009.04
2023-01-03T00:01:32.367Z,1008.94
2023-01-03T00:02:04.420Z,1008.94
2023-01-03T00:02:36.627Z,1008.94
2023-01-03T00:03:08.212Z,1008.94
2023-01-03T00:03:40.261Z,1009.04
2023-01-03T00:04:12.323Z,1009.04
2023-01-03T00:04:49.166Z,1008.94
2023-01-03T00:05:16.144Z,1009.04
2023-01-03T00:05:48.137Z,1009.04
2023-01-03T00:06:20.216Z,1008.84
2023-01-03T00:06:52.242Z,1008.84
2023-01-03T00:07:24.048Z,1008.94
2023-01-03T00:07:56.113Z,1008.94
2023-01-03T00:08:28.070Z,1009.21
2023-01-03T00:09:00.164Z,1009.21
2023-01-03T00:09:31.954Z,1009.04
2023-01-03T00:10:04.025Z,1009.04
2023-01-03T00:10:36.083Z,1009.11
2023-01-03T00:11:07.870Z,1009.11
2023-01-03T00:11:39.922Z,1009.04
2023-01-03T00:12:11.895Z,1009.04
2023-01-03T00:12:43.950Z,1008.84
2023-01-03T00:13:15.809Z,1009.11
2023-01-03T00:13:47.800Z,1009.11
2023-01-03T00:14:19.939Z,1009.04
2023-01-03T00:14:51.879Z,1009.04
2023-01-03T00:15:23.838Z,1008.94
2023-01-03T00:15:55.676Z,1008.94
2023-01-03T00:16:27.832Z,1009.11
2023-01-03T00:16:59.839Z,1009.11
2023-01-03T00:17:31.578Z,1009.04
2023-01-03T00:18:03.721Z,1009.04
2023-01-03T00:18:35.696Z,1009.11
2023-01-03T00:19:07.715Z,1009.11
2023-01-03T00:19:39.556Z,1009.11
2023-01-03T00:20:11.563Z,1009.11
2023-01-03T00:20:43.547Z,1009.21
2023-01-03T00:21:15.596Z,1009.31
2023-01-03T00:21:47.481Z,1009.31
2023-01-03T00:22:19.474Z,1009.21
2023-01-03T00:22:51.523Z,1009.21
2023-01-03T00:23:23.491Z,1009.21
2023-01-03T00:23:55.304Z,1009.21
2023-01-03T00:24:27.340Z,1009.21
2023-01-03T00:24:59.382Z,1009.21
2023-01-03T00:25:31.424Z,1009.11
2023-01-03T00:26:03.271Z,1009.11
2023-01-03T00:26:35.295Z,1009.31
2023-01-03T00:27:07.313Z,1009.31
2023-01-03T00:27:39.420Z,1009.31
2023-01-03T00:28:11.132Z,1009.31
2023-01-03T00:28:43.185Z,1009.41
2023-01-03T00:29:15.259Z,1009.31
2023-01-03T00:29:47.228Z,1009.31
2023-01-03T00:30:19.235Z,1009.41
2023-01-03T00:30:51.130Z,1009.41
2023-01-03T00:31:23.195Z,1009.31
2023-01-03T00:31:55.158Z,1009.31
2023-01-03T00:32:26.966Z,1009.21
2023-01-03T00:32:59.015Z,1009.21
2023-01-03T00:33:31.008Z,1009.21
2023-01-03T00:34:03.093Z,1009.21
2023-01-03T00:34:34.919Z,1009.31
2023-01-03T00:35:06.999Z,1009.31
2023-01-03T00:35:38.958Z,1009.41
2023-01-03T00:36:10.776Z,1009.41
2023-01-03T00:36:42.801Z,1009.31
2023-01-03T00:37:14.887Z,1009.31
2023-01-03T00:37:46.894Z,1009.31
2023-01-03T00:38:18.689Z,1009.31
2023-01-03T00:38:50.773Z,1009.31
2023-01-03T00:39:22.786Z,1009.41
2023-01-03T00:39:54.748Z,1009.41
2023-01-03T00:40:26.645Z,1009.31
2023-01-03T00:40:58.610Z,1009.31
2023-01-03T00:41:30.718Z,1009.51
2023-01-03T00:42:02.709Z,1009.51
2023-01-03T00:42:34.500Z,1009.51
2023-01-03T00:43:06.613Z,1009.51
2023-01-03T00:43:38.596Z,1009.51
2023-01-03T00:44:10.609Z,1009.51
2023-01-03T00:44:42.502Z,1009.41
2023-01-03T00:45:19.247Z,1009.41
2023-01-03T00:45:46.534Z,1009.31
2023-01-03T00:46:18.670Z,1009.62
2023-01-03T00:46:50.375Z,1009.62
2023-01-03T00:47:22.447Z,1009.41
2023-01-03T00:47:54.408Z,1009.41
2023-01-03T00:48:26.480Z,1009.41
2023-01-03T00:48:58.299Z,1009.41
2023-01-03T00:49:30.316Z,1009.51
2023-01-03T00:50:02.393Z,1009.51
2023-01-03T00:50:34.365Z,1009.51
2023-01-03T00:51:06.226Z,1009.51
2023-01-03T00:51:38.260Z,1009.41
2023-01-03T00:52:10.240Z,1009.41
2023-01-03T00:52:42.244Z,1009.31
2023-01-03T00:53:14.145Z,1009.31
2023-01-03T00:53:46.145Z,1009.41
2023-01-03T00:54:18.184Z,1009.51
2023-01-03T00:54:50.156Z,1009.51
2023-01-03T00:55:22.027Z,1009.41
2023-01-03T00:55:54.036Z,1009.41
2023-01-03T00:56:26.057Z,1009.41
2023-01-03T00:56:58.128Z,1009.41
2023-01-03T00:57:29.927Z,1009.41
2023-01-03T00:58:02.010Z,1009.41
2023-01-03T00:58:34.018Z,1009.62
2023-01-03T00:59:06.032Z,1009.62
2023-01-03T00:59:37.883Z,1009.41
2023-01-03T01:00:10.437Z,1009.41
2023-01-03T01:00:41.907Z,1009.51
2023-01-03T01:01:13.999Z,1009.51
2023-01-03T01:01:47.512Z,1009.51
2023-01-03T01:02:17.985Z,1009.51
2023-01-03T01:02:49.960Z,1009.51
2023-01-03T01:03:22.051Z,1009.62
2023-01-03T01:03:53.785Z,1009.62
2023-01-03T01:04:25.742Z,1009.51
2023-01-03T01:04:57.926Z,1009.51
2023-01-03T01:05:29.764Z,1009.51
2023-01-03T01:06:01.614Z,1009.51
2023-01-03T01:06:34.139Z,1009.51
2023-01-03T01:07:05.711Z,1009.51
2023-01-03T01:07:37.502Z,1009.51
2023-01-03T01:08:09.510Z,1009.51
2023-01-03T01:08:41.568Z,1009.62
2023-01-03T01:09:13.584Z,1009.62
2023-01-03T01:09:45.563Z,1009.62
2023-01-03T01:10:17.435Z,1009.41
2023-01-03T01:10:49.431Z,1009.41
2023-01-03T01:11:21.504Z,1009.62
2023-01-03T01:11:53.341Z,1009.62
2023-01-03T01:12:25.338Z,1009.72
2023-01-03T01:12:57.384Z,1009.72
2023-01-03T01:13:29.386Z,1009.72
2023-01-03T01:14:01.270Z,1009.72
2023-01-03T01:14:33.578Z,1009.62
2023-01-03T01:15:05.797Z,1009.62
2023-01-03T01:15:37.361Z,1009.72
2023-01-03T01:16:09.269Z,1009.72
2023-01-03T01:16:41.165Z,1009.82
2023-01-03T01:17:16.670Z,1009.82
2023-01-03T01:17:45.212Z,1009.72
2023-01-03T01:18:17.041Z,1009.62
2023-01-03T01:18:49.036Z,1009.62
2023-01-03T01:19:21.076Z,1009.51
2023-01-03T01:19:53.165Z,1009.51
2023-01-03T01:20:24.992Z,1009.62
2023-01-03T01:20:56.956Z,1009.62
2023-01-03T01:21:28.992Z,1009.82
2023-01-03T01:22:01.049Z,1009.82
2023-01-03T01:22:32.878Z,1009.82
2023-01-03T01:23:04.974Z,1009.82
2023-01-03T01:23:36.951Z,1009.82
2023-01-03T01:24:12.785Z,1009.82
2023-01-03T01:24:40.838Z,1009.82
2023-01-03T01:25:12.838Z,1009.82
2023-01-03T01:25:44.842Z,1009.72
2023-01-03T01:26:16.859Z,1009.82
2023-01-03T01:26:48.705Z,1009.82
2023-01-03T01:27:20.712Z,1009.82
2023-01-03T01:27:52.758Z,1009.82
2023-01-03T01:28:24.772Z,1009.82
2023-01-03T01:28:56.619Z,1009.82
2023-01-03T01:29:28.661Z,1009.92
2023-01-03T01:30:01.158Z,1009.92
2023-01-03T01:30:32.681Z,1010.02
2023-01-03T01:31:04.615Z,1010.02
2023-01-03T01:31:36.730Z,1009.92
2023-01-03T01:32:08.628Z,1009.92
2023-01-03T01:32:40.585Z,1009.82
2023-01-03T01:33:12.460Z,1009.82
2023-01-03T01:33:44.478Z,1009.72
2023-01-03T01:34:16.519Z,1010.02
2023-01-03T01:34:48.525Z,1010.02
2023-01-03T01:35:20.361Z,1009.82
2023-01-03T01:35:52.374Z,1009.82
2023-01-03T01:36:24.384Z,1009.92
2023-01-03T01:36:56.406Z,1009.92
2023-01-03T01:37:28.306Z,1009.82
2023-01-03T01:38:00.400Z,1009.82
2023-01-03T01:38:32.311Z,1010.02
2023-01-03T01:39:04.374Z,1010.02
2023-01-03T01:39:36.205Z,1010.02
2023-01-03T01:40:08.225Z,1010.02
2023-01-03T01:40:40.237Z,1009.92
2023-01-03T01:41:12.049Z,1009.92
2023-01-03T01:41:44.098Z,1010.02
2023-01-03T01:42:19.661Z,1009.92
2023-01-03T01:42:48.113Z,1009.92
2023-01-03T01:43:20.013Z,1010.02
2023-01-03T01:43:52.021Z,1010.02
2023-01-03T01:44:24.091Z,1009.92
2023-01-03T01:44:56.079Z,1009.92
2023-01-03T01:45:28.270Z,1010.02
2023-01-03T01:45:59.909Z,1010.02
2023-01-03T01:46:32.026Z,1010.12
2023-01-03T01:47:04.012Z,1010.12
2023-01-03T01:47:35.865Z,1010.02
2023-01-03T01:48:07.816Z,1010.02
2023-01-03T01:48:39.877Z,1010.02
2023-01-03T01:49:11.905Z,1010.02
2023-01-03T01:49:43.709Z,1010.02
2023-01-03T01:50:15.769Z,1010.02
2023-01-03T01:50:47.774Z,1010.02
2023-01-03T01:51:19.780Z,1010.02
2023-01-03T01:51:51.662Z,1010.02
2023-01-03T01:52:23.653Z,1010.02
2023-01-03T01:52:55.673Z,1010.02
2023-01-03T01:53:27.739Z,1010.12
2023-01-03T01:53:59.542Z,1010.12
2023-01-03T01:54:31.566Z,1010.23
2023-01-03T01:55:03.736Z,1010.23
2023-01-03T01:55:36.119Z,1010.02
2023-01-03T01:56:07.432Z,1010.02
2023-01-03T01:56:39.600Z,1010.02
2023-01-03T01:57:11.558Z,1010.02
2023-01-03T01:57:43.514Z,1009.92
2023-01-03T01:58:15.361Z,1010.02
2023-01-03T01:58:47.401Z,1010.02
2023-01-03T01:59:19.422Z,1009.92
2023-01-03T01:59:51.410Z,1009.92
2023-01-03T02:00:23.483Z,1010.12
2023-01-03T02:00:55.351Z,1010.12
2023-01-03T02:01:27.462Z,1010.12
2023-01-03T02:01:59.512Z,1010.12
2023-01-03T02:02:31.373Z,1010.12
2023-01-03T02:03:03.339Z,1010.12
2023-01-03T02:03:35.422Z,1010.12
2023-01-03T02:04:07.291Z,1010.12
2023-01-03T02:04:39.122Z,1010.12
2023-01-03T02:05:11.198Z,1010.12
2023-01-03T02:05:43.172Z,1010.23
2023-01-03T02:06:15.236Z,1010.23
2023-01-03T02:06:46.978Z,1010.23
2023-01-03T02:07:19.032Z,1010.12
2023-01-03T02:07:51.072Z,1010.12
2023-01-03T02:08:23.141Z,1010.12
2023-01-03T02:08:54.972Z,1010.12
2023-01-03T02:09:26.964Z,1010.02
2023-01-03T02:09:58.967Z,1010.02
2023-01-03T02:10:31.022Z,1010.12
2023-01-03T02:11:02.863Z,1010.12
2023-01-03T02:11:35.562Z,1010.12
2023-01-03T02:12:06.971Z,1010.12
2023-01-03T02:12:38.927Z,1010.33
2023-01-03T02:13:10.893Z,1010.33
2023-01-03T02:13:42.813Z,1010.12
2023-01-03T02:14:14.836Z,1010.12
2023-01-03T02:14:46.868Z,1010.23
2023-01-03T02:15:18.860Z,1010.23
2023-01-03T02:15:50.828Z,1010.23
2023-01-03T02:16:22.770Z,1010.12
2023-01-03T02:16:54.562Z,1010.12
2023-01-03T02:17:26.602Z,1010.23
2023-01-03T02:17:58.623Z,1010.23
2023-01-03T02:18:30.710Z,1010.23
2023-01-03T02:19:02.513Z,1010.23
2023-01-03T02:19:34.571Z,1010.12
2023-01-03T02:20:06.526Z,1010.12
2023-01-03T02:20:38.726Z,1010.23
2023-01-03T02:21:10.380Z,1010.23
2023-01-03T02:21:42.514Z,1010.33
2023-01-03T02:22:14.456Z,1010.33
2023-01-03T02:22:46.505Z,1010.23
2023-01-03T02:23:18.291Z,1010.23
2023-01-03T02:23:50.335Z,1010.23
2023-01-03T02:24:22.420Z,1010.02
2023-01-03T02:24:54.459Z,1010.02
2023-01-03T02:25:26.573Z,1010.12
2023-01-03T02:25:58.322Z,1010.12
2023-01-03T02:26:30.370Z,1010.23
2023-01-03T02:27:02.202Z,1010.23
2023-01-03T02:27:34.255Z,1010.12
2023-01-03T02:28:06.233Z,1010.12
2023-01-03T02:28:38.234Z,1010.12
2023-01-03T02:29:10.092Z,1010.12
2023-01-03T02:29:42.135Z,1010.12
2023-01-03T02:30:14.356Z,1010.12
2023-01-03T02:30:46.197Z,1010.12
2023-01-03T02:31:18.146Z,1010.23
2023-01-03T02:31:50.034Z,1010.23
2023-01-03T02:32:22.080Z,1010.23
2023-01-03T02:32:54.066Z,1010.23
2023-01-03T02:33:25.901Z,1010.23
2023-01-03T02:33:58.081Z,1010.23
2023-01-03T02:34:29.993Z,1010.12
2023-01-03T02:35:02.059Z,1010.12
2023-01-03T02:35:33.803Z,1010.23
2023-01-03T02:36:05.915Z,1010.23
2023-01-03T02:36:37.922Z,1010.23
2023-01-03T02:37:09.754Z,1010.23
2023-01-03T02:37:41.760Z,1010.12
2023-01-03T02:38:13.812Z,1010.12
2023-01-03T02:38:45.782Z,1010.23
2023-01-03T02:39:21.990Z,1010.23
2023-01-03T02:39:49.718Z,1010.23
2023-01-03T02:40:22.234Z,1010.12
2023-01-03T02:40:53.739Z,1010.12
2023-01-03T02:41:25.594Z,1010.23
2023-01-03T02:41:57.805Z,1010.23
2023-01-03T02:42:29.634Z,1010.23
2023-01-03T02:43:01.735Z,1010.23
2023-01-03T02:43:33.524Z,1010.23
2023-01-03T02:44:05.541Z,1010.23
2023-01-03T02:44:37.564Z,1010.33
2023-01-03T02:45:09.889Z,1010.33
2023-01-03T02:45:41.381Z,1010.12
2023-01-03T02:46:13.477Z,1010.12
2023-01-03T02:46:45.511Z,1010.23
2023-01-03T02:47:17.468Z,1010.12
2023-01-03T02:47:49.321Z,1010.12
2023-01-03T02:48:21.341Z,1010.02
2023-01-03T02:48:53.378Z,1010.02
2023-01-03T02:49:25.354Z,1010.23
2023-01-03T02:49:57.256Z,1010.23
2023-01-03T02:50:29.263Z,1010.12
2023-01-03T02:51:01.285Z,1010.12
2023-01-03T02:51:33.965Z,1010.12
2023-01-03T02:52:05.126Z,1010.12
2023-01-03T02:52:37.158Z,1010.12
2023-01-03T02:53:09.136Z,1010.12
2023-01-03T02:53:41.223Z,1010.12
2023-01-03T02:54:13.026Z,1010.12
2023-01-03T02:54:45.066Z,1010.23
2023-01-03T02:55:17.096Z,1010.12
2023-01-03T02:55:49.085Z,1010.12
2023-01-03T02:56:20.980Z,1010.33
2023-01-03T02:56:52.957Z,1010.33
2023-01-03T02:57:24.982Z,1010.23
2023-01-03T02:57:56.855Z,1010.23
2023-01-03T02:58:28.930Z,1010.53
2023-01-03T02:59:00.976Z,1010.53
2023-01-03T02:59:32.968Z,1010.33
2023-01-03T03:00:05.226Z,1010.33
2023-01-03T03:00:37.030Z,1010.33
2023-01-03T03:01:08.876Z,1010.33
2023-01-03T03:01:40.927Z,1010.23
2023-01-03T03:02:12.815Z,1010.23
2023-01-03T03:02:44.792Z,1010.33
2023-01-03T03:03:16.851Z,1010.43
2023-01-03T03:03:48.801Z,1010.43
2023-01-03T03:04:20.535Z,1010.23
2023-01-03T03:04:52.602Z,1010.23
2023-01-03T03:05:24.614Z,1010.43
2023-01-03T03:05:56.659Z,1010.43
2023-01-03T03:06:28.485Z,1010.43
2023-01-03T03:07:00.573Z,1010.43
2023-01-03T03:07:32.563Z,1010.43
2023-01-03T03:08:04.580Z,1010.43
2023-01-03T03:08:36.573Z,1010.43
2023-01-03T03:09:08.439Z,1010.43
2023-01-03T03:09:40.475Z,1010.53
2023-01-03T03:10:12.508Z,1010.53
2023-01-03T03:10:44.288Z,1010.53
2023-01-03T03:11:16.344Z,1010.53
2023-01-03T03:11:48.377Z,1010.53
2023-01-03T03:12:20.435Z,1010.33
2023-01-03T03:12:52.253Z,1010.33
2023-01-03T03:13:24.269Z,1010.43
2023-01-03T03:13:56.242Z,1010.43
2023-01-03T03:14:28.352Z,1010.43
2023-01-03T03:15:00.476Z,1010.43
2023-01-03T03:15:32.199Z,1010.53
2023-01-03T03:16:04.215Z,1010.53
2023-01-03T03:16:36.272Z,1010.43
2023-01-03T03:17:08.097Z,1010.43
2023-01-03T03:17:40.106Z,1010.43
2023-01-03T03:18:12.141Z,1010.43
2023-01-03T03:18:44.151Z,1010.53
2023-01-03T03:19:16.009Z,1010.53
2023-01-03T03:19:47.983Z,1010.53
2023-01-03T03:20:20.051Z,1010.43
2023-01-03T03:20:52.088Z,1010.43
2023-01-03T03:21:23.854Z,1010.43
2023-01-03T03:21:55.959Z,1010.43
2023-01-03T03:22:27.941Z,1010.43
2023-01-03T03:23:00.029Z,1010.43
2023-01-03T03:23:31.917Z,1010.53
2023-01-03T03:24:03.858Z,1010.53
2023-01-03T03:24:35.902Z,1010.43
2023-01-03T03:25:07.707Z,1010.43
2023-01-03T03:25:39.755Z,1010.53
2023-01-03T03:26:11.787Z,1010.53
2023-01-03T03:26:43.861Z,1010.53
2023-01-03T03:27:15.607Z,1010.43
2023-01-03T03:27:47.780Z,1010.43
2023-01-03T03:28:19.706Z,1010.43
2023-01-03T03:28:51.688Z,1010.43
2023-01-03T03:29:23.713Z,1010.63
2023-01-03T03:29:55.522Z,1010.63
2023-01-03T03:30:27.801Z,1010.53
2023-01-03T03:30:59.757Z,1010.53
2023-01-03T03:31:31.538Z,1010.53
2023-01-03T03:32:03.470Z,1010.53
2023-01-03T03:32:35.494Z,1010.53
2023-01-03T03:33:07.554Z,1010.53
2023-01-03T03:33:39.405Z,1010.53
2023-01-03T03:34:11.439Z,1010.53
2023-01-03T03:34:43.423Z,1010.63
2023-01-03T03:35:15.455Z,1010.53
2023-01-03T03:35:47.360Z,1010.53
2023-01-03T03:36:19.328Z,1010.43
2023-01-03T03:36:51.386Z,1010.43
2023-01-03T03:37:23.391Z,1010.53
2023-01-03T03:37:55.211Z,1010.53
2023-01-03T03:38:27.234Z,1010.53
2023-01-03T03:38:59.260Z,1010.53
2023-01-03T03:39:31.359Z,1010.73
2023-01-03T03:40:03.161Z,1010.73
2023-01-03T03:40:35.648Z,1010.63
2023-01-03T03:41:07.125Z,1010.63
2023-01-03T03:41:39.003Z,1010.73
2023-01-03T03:42:11.052Z,1010.73
2023-01-03T03:42:43.039Z,1010.84
2023-01-03T03:43:15.122Z,1010.84
2023-01-03T03:43:47.117Z,1010.73
2023-01-03T03:44:18.966Z,1010.63
2023-01-03T03:44:51.003Z,1010.63
2023-01-03T03:45:24.248Z,1010.63
2023-01-03T03:45:55.030Z,1010.63
2023-01-03T03:46:26.887Z,1010.63
2023-01-03T03:47:04.124Z,1010.63
2023-01-03T03:47:30.970Z,1010.63
2023-01-03T03:48:02.706Z,1010.63
2023-01-03T03:48:35.657Z,1010.73
2023-01-03T03:49:06.804Z,1010.73
2023-01-03T03:49:38.864Z,1010.73
2023-01-03T03:50:10.700Z,1010.73
2023-01-03T03:50:42.677Z,1010.63
2023-01-03T03:51:14.719Z,1010.63
2023-01-03T03:51:46.710Z,1010.73
2023-01-03T03:52:18.583Z,1010.63
2023-01-03T03:52:50.599Z,1010.63
2023-01-03T03:53:22.593Z,1010.73
2023-01-03T03:53:54.606Z,1010.73
2023-01-03T03:54:26.451Z,1010.53
2023-01-03T03:54:58.547Z,1010.53
2023-01-03T03:55:30.569Z,1010.63
2023-01-03T03:56:02.539Z,1010.63
2023-01-03T03:56:34.413Z,1010.63
2023-01-03T03:57:06.394Z,1010.63
2023-01-03T03:57:38.458Z,1010.73
2023-01-03T03:58:15.516Z,1010.73
2023-01-03T03:58:42.487Z,1010.73
2023-01-03T03:59:14.339Z,1010.73
2023-01-03T03:59:46.360Z,1010.73
2023-01-03T04:00:18.585Z,1010.63
2023-01-03T04:00:50.269Z,1010.63
2023-01-03T04:01:22.290Z,1010.73
2023-01-03T04:01:54.442Z,1010.73
2023-01-03T04:02:26.505Z,1010.73
2023-01-03T04:02:58.388Z,1010.73
2023-01-03T04:03:30.313Z,1010.73
2023-01-03T04:04:02.259Z,1010.73
2023-01-03T04:04:34.258Z,1010.73
2023-01-03T04:05:06.055Z,1010.73
2023-01-03T04:05:38.030Z,1010.63
2023-01-03T04:06:10.119Z,1010.63
2023-01-03T04:06:42.170Z,1010.63
2023-01-03T04:07:13.971Z,1010.63
2023-01-03T04:07:45.976Z,1010.63
2023-01-03T04:08:18.025Z,1010.73
2023-01-03T04:08:50.264Z,1010.73
2023-01-03T04:09:21.873Z,1010.73
2023-01-03T04:09:53.957Z,1010.73
2023-01-03T04:10:25.984Z,1010.73
2023-01-03T04:10:58.034Z,1010.73
2023-01-03T04:11:29.830Z,1010.73
2023-01-03T04:12:01.951Z,1010.73
2023-01-03T04:12:34.957Z,1010.84
2023-01-03T04:13:05.863Z,1010.84
2023-01-03T04:13:37.708Z,1010.84
2023-01-03T04:14:09.704Z,1010.84
2023-01-03T04:14:41.803Z,1010.73
2023-01-03T04:15:13.922Z,1010.73
2023-01-03T04:15:45.621Z,1010.94
2023-01-03T04:16:17.700Z,1010.84
2023-01-03T04:16:49.720Z,1010.84
2023-01-03T04:17:21.541Z,1010.73
2023-01-03T04:17:53.542Z,1010.73
2023-01-03T04:18:25.583Z,1010.94
2023-01-03T04:18:57.598Z,1010.94
2023-01-03T04:19:29.443Z,1010.84
2023-01-03T04:20:01.723Z,1010.84
2023-01-03T04:20:33.624Z,1010.84
2023-01-03T04:21:05.521Z,1010.84
2023-01-03T04:21:37.321Z,1010.84
2023-01-03T04:22:09.368Z,1010.84
2023-01-03T04:22:41.440Z,1010.84
2023-01-03T04:23:13.445Z,1010.84
2023-01-03T04:23:45.353Z,1010.94
2023-01-03T04:24:17.302Z,1010.73
2023-01-03T04:24:49.321Z,1010.73
2023-01-03T04:25:21.353Z,1010.73
2023-01-03T04:25:53.148Z,1010.73
2023-01-03T04:26:25.230Z,1010.73
2023-01-03T04:26:58.172Z,1010.73
2023-01-03T04:27:29.294Z,1010.84
2023-01-03T04:28:01.125Z,1010.84
2023-01-03T04:28:33.116Z,1010.94
2023-01-03T04:29:05.114Z,1010.94
2023-01-03T04:29:39.580Z,1010.94
2023-01-03T04:30:10.005Z,1010.94
2023-01-03T04:30:41.073Z,1010.94
2023-01-03T04:31:13.152Z,1010.94
2023-01-03T04:31:45.126Z,1010.84
2023-01-03T04:32:16.879Z,1010.73
2023-01-03T04:32:48.947Z,1010.73
2023-01-03T04:33:21.013Z,1010.94
2023-01-03T04:33:52.963Z,1010.94
2023-01-03T04:34:24.828Z,1010.84
2023-01-03T04:34:56.850Z,1010.84
2023-01-03T04:35:28.924Z,1010.84
2023-01-03T04:36:01.111Z,1010.84
2023-01-03T04:36:32.749Z,1010.94
2023-01-03T04:37:04.749Z,1010.94
2023-01-03T04:37:36.830Z,1010.84
2023-01-03T04:38:08.640Z,1010.84
2023-01-03T04:38:40.675Z,1010.84
2023-01-03T04:39:12.778Z,1010.84
2023-01-03T04:39:44.751Z,1010.94
2023-01-03T04:40:16.568Z,1010.94
2023-01-03T04:40:48.620Z,1010.94
2023-01-03T04:41:20.915Z,1010.94
2023-01-03T04:41:52.542Z,1010.94
2023-01-03T04:42:24.515Z,1010.84
2023-01-03T04:42:56.575Z,1010.84
2023-01-03T04:43:28.595Z,1010.84
2023-01-03T04:44:00.369Z,1010.84
2023-01-03T04:44:32.426Z,1010.84
2023-01-03T04:45:04.748Z,1010.84
2023-01-03T04:45:36.524Z,1010.94
2023-01-03T04:46:08.376Z,1010.94
2023-01-03T04:46:40.328Z,1010.94
2023-01-03T04:47:12.382Z,1010.94
2023-01-03T04:47:44.412Z,1010.94
2023-01-03T04:48:16.201Z,1011.04
2023-01-03T04:48:48.253Z,1011.04
2023-01-03T04:49:20.282Z,1010.73
2023-01-03T04:49:52.366Z,1010.73
2023-01-03T04:50:24.251Z,1011.04
2023-01-03T04:50:56.185Z,1011.04
2023-01-03T04:51:28.217Z,1011.04
2023-01-03T04:52:00.232Z,1011.04
2023-01-03T04:52:32.085Z,1010.84
2023-01-03T04:53:04.119Z,1010.84
2023-01-03T04:53:36.125Z,1010.94
2023-01-03T04:54:08.105Z,1010.94
2023-01-03T04:54:39.996Z,1010.94
2023-01-03T04:55:12.003Z,1010.94
2023-01-03T04:55:44.102Z,1010.94
2023-01-03T04:56:15.896Z,1010.94
2023-01-03T04:56:47.873Z,1010.94
2023-01-03T04:57:20.054Z,1010.94
2023-01-03T04:57:51.934Z,1010.94
2023-01-03T04:58:23.786Z,1010.94
2023-01-03T04:58:55.803Z,1010.94
2023-01-03T04:59:27.824Z,1010.84
2023-01-03T04:59:59.887Z,1010.84
2023-01-03T05:00:31.953Z,1010.94
2023-01-03T05:01:03.734Z,1010.94
2023-01-03T05:01:35.935Z,1010.94
2023-01-03T05:02:07.995Z,1010.94
2023-01-03T05:02:39.674Z,1010.94
2023-01-03T05:03:11.641Z,1010.94
2023-01-03T05:03:43.722Z,1010.84
2023-01-03T05:04:15.762Z,1010.94
2023-01-03T05:04:47.540Z,1010.94
2023-01-03T05:05:19.596Z,1010.84
2023-01-03T05:05:51.632Z,1010.84
2023-01-03T05:06:23.648Z,1010.84
2023-01-03T05:06:55.516Z,1010.84
2023-01-03T05:07:27.517Z,1010.94
2023-01-03T05:07:59.512Z,1010.94
2023-01-03T05:08:31.596Z,1011.14
2023-01-03T05:09:03.343Z,1011.14
2023-01-03T05:09:35.345Z,1011.04
2023-01-03T05:10:07.474Z,1011.04
2023-01-03T05:10:39.288Z,1011.04
2023-01-03T05:11:11.297Z,1011.04
2023-01-03T05:11:43.339Z,1010.84
2023-01-03T05:12:15.340Z,1010.84
2023-01-03T05:12:47.244Z,1011.04
2023-01-03T05:13:19.231Z,1011.04
2023-01-03T05:13:51.223Z,1011.04
2023-01-03T05:14:23.267Z,1011.04
2023-01-03T05:14:55.099Z,1011.04
2023-01-03T05:15:27.333Z,1010.94
2023-01-03T05:15:59.176Z,1010.94
2023-01-03T05:16:31.367Z,1011.14
2023-01-03T05:17:03.110Z,1011.14
2023-01-03T05:17:35.271Z,1011.04
2023-01-03T05:18:07.066Z,1011.04
2023-01-03T05:18:39.071Z,1011.04
2023-01-03T05:19:10.938Z,1011.04
2023-01-03T05:19:45.501Z,1010.94
2023-01-03T05:20:15.015Z,1010.94
2023-01-03T05:20:46.976Z,1011.04
2023-01-03T05:21:18.862Z,1011.14
2023-01-03T05:21:50.870Z,1011.14
2023-01-03T05:22:22.904Z,1011.04
2023-01-03T05:22:54.952Z,1011.04
2023-01-03T05:23:26.799Z,1011.04
2023-01-03T05:23:58.873Z,1011.04
2023-01-03T05:24:30.841Z,1010.94
2023-01-03T05:25:02.807Z,1010.94
2023-01-03T05:25:35.088Z,1011.04
2023-01-03T05:26:06.729Z,1011.04
2023-01-03T05:26:38.684Z,1011.04
2023-01-03T05:27:10.811Z,1011.04
2023-01-03T05:27:42.599Z,1011.14
2023-01-03T05:28:17.484Z,1011.14
2023-01-03T05:28:46.691Z,1010.94
2023-01-03T05:29:18.656Z,1011.04
2023-01-03T05:29:50.514Z,1011.04
2023-01-03T05:30:22.720Z,1010.94
2023-01-03T05:30:54.577Z,1010.94
2023-01-03T05:31:26.729Z,1011.04
2023-01-03T05:31:58.601Z,1011.04
2023-01-03T05:32:30.548Z,1011.14
2023-01-03T05:33:02.464Z,1011.14
2023-01-03T05:33:34.513Z,1011.04
2023-01-03T05:34:06.384Z,1011.04
2023-01-03T05:34:38.375Z,1011.04
2023-01-03T05:35:10.417Z,1011.04
2023-01-03T05:35:42.398Z,1011.14
2023-01-03T05:36:16.405Z,1011.14
2023-01-03T05:36:46.318Z,1011.04
2023-01-03T05:37:18.362Z,1011.14
2023-01-03T05:37:50.165Z,1011.14
2023-01-03T05:38:22.208Z,1011.14
2023-01-03T05:38:54.192Z,1011.14
2023-01-03T05:39:26.393Z,1011.14
2023-01-03T05:39:58.047Z,1011.14
2023-01-03T05:40:30.136Z,1011.04
2023-01-03T05:41:02.118Z,1011.04
2023-01-03T05:41:34.109Z,1011.14
2023-01-03T05:42:06.022Z,1011.14
2023-01-03T05:42:38.025Z,1011.24
2023-01-03T05:43:10.025Z,1011.24
2023-01-03T05:43:42.082Z,1011.14
2023-01-03T05:44:13.926Z,1011.14
2023-01-03T05:44:45.892Z,1011.14
2023-01-03T05:45:18.132Z,1011.24
2023-01-03T05:45:50.036Z,1011.24
2023-01-03T05:46:21.839Z,1011.31
2023-01-03T05:46:53.869Z,1011.31
2023-01-03T05:47:25.956Z,1011.24
2023-01-03T05:47:57.868Z,1011.24
2023-01-03T05:48:29.693Z,1011.31
2023-01-03T05:49:01.786Z,1011.31
2023-01-03T05:49:34.098Z,1011.24
2023-01-03T05:50:05.810Z,1011.24
2023-01-03T05:50:37.643Z,1011.31
2023-01-03T05:51:09.620Z,1011.31
2023-01-03T05:51:41.679Z,1011.14
2023-01-03T05:52:13.731Z,1011.14
2023-01-03T05:52:45.573Z,1011.24
2023-01-03T05:53:17.537Z,1011.31
2023-01-03T05:53:49.625Z,1011.31
2023-01-03T05:54:21.663Z,1011.31
2023-01-03T05:54:53.496Z,1011.31
2023-01-03T05:55:25.535Z,1011.41
2023-01-03T05:55:57.535Z,1011.41
2023-01-03T05:56:29.330Z,1011.31
2023-01-03T05:57:01.706Z,1011.31
2023-01-03T05:57:35.674Z,1011.24
2023-01-03T05:58:05.518Z,1011.24
2023-01-03T05:58:37.219Z,1011.24
2023-01-03T05:59:09.256Z,1011.24
2023-01-03T05:59:41.346Z,1011.41
2023-01-03T06:00:13.791Z,1011.41
2023-01-03T06:00:45.180Z,1011.41
2023-01-03T06:01:17.307Z,1011.31
2023-01-03T06:01:49.389Z,1011.31
2023-01-03T06:02:21.288Z,1011.31
2023-01-03T06:02:53.200Z,1011.31
2023-01-03T06:03:25.147Z,1011.31
2023-01-03T06:03:57.437Z,1011.31
2023-01-03T06:04:29.211Z,1011.41
2023-01-03T06:05:01.229Z,1011.41
2023-01-03T06:05:33.044Z,1011.31
2023-01-03T06:06:05.082Z,1011.31
2023-01-03T06:06:37.080Z,1011.41
2023-01-03T06:07:08.928Z,1011.41
2023-01-03T06:07:40.965Z,1011.24
2023-01-03T06:08:12.975Z,1011.24
2023-01-03T06:08:44.985Z,1011.41
2023-01-03T06:09:16.846Z,1011.31
2023-01-03T06:09:48.875Z,1011.31
2023-01-03T06:10:21.302Z,1011.61
2023-01-03T06:10:52.902Z,1011.61
2023-01-03T06:11:24.779Z,1011.41
2023-01-03T06:11:56.740Z,1011.41
2023-01-03T06:12:28.761Z,1011.51
2023-01-03T06:13:00.856Z,1011.51
2023-01-03T06:13:32.618Z,1011.61
2023-01-03T06:14:04.808Z,1011.61
2023-01-03T06:14:36.713Z,1011.61
2023-01-03T06:15:08.981Z,1011.61
2023-01-03T06:15:40.585Z,1011.51
2023-01-03T06:16:13.687Z,1011.51
2023-01-03T06:16:44.690Z,1011.41
2023-01-03T06:17:16.791Z,1011.51
2023-01-03T06:17:48.516Z,1011.51
2023-01-03T06:18:20.511Z,1011.41
2023-01-03T06:18:52.579Z,1011.41
2023-01-03T06:19:24.620Z,1011.61
2023-01-03T06:19:56.383Z,1011.61
2023-01-03T06:20:28.397Z,1011.41
2023-01-03T06:21:00.462Z,1011.41
2023-01-03T06:21:32.505Z,1011.31
2023-01-03T06:22:10.198Z,1011.31
2023-01-03T06:22:36.321Z,1011.61
2023-01-03T06:23:08.524Z,1011.61
2023-01-03T06:23:40.459Z,1011.41
2023-01-03T06:24:12.235Z,1011.41
2023-01-03T06:24:44.284Z,1011.61
2023-01-03T06:25:16.285Z,1011.51
2023-01-03T06:25:48.282Z,1011.51
2023-01-03T06:26:20.128Z,1011.61
2023-01-03T06:26:52.210Z,1011.61